Time;durP1;ratioP1;P1;durP2;ratioP2;P2;SDS_P1;SDS_P2;PMS_P1;PMS_P2;Temp;Humidity;BMP_temperature;BMP_pressure;BME280_temperature;BME280_humidity;BME280_pressure;Samples;Min_cycle;Max_cycle;Signal;HPM_P1;HPM_P2
2023/12/01 00:02:24;;;;;;;1.80;1.52;;;6.40;44.20;;;;;;5031979;28;20505;-57
2023/12/01 00:04:53;;;;;;;3.17;1.88;;;6.40;43.40;;;;;;5032257;28;20236;-57
2023/12/01 00:07:18;;;;;;;3.63;3.33;;;6.40;43.50;;;;;;5032197;28;20273;-51
2023/12/01 00:09:44;;;;;;;2.50;1.90;;;6.40;43.30;;;;;;5032165;28;20578;-55
2023/12/01 00:12:10;;;;;;;5.03;3.20;;;6.40;43.40;;;;;;5031965;28;20197;-55
2023/12/01 00:14:36;;;;;;;3.57;2.40;;;6.40;43.30;;;;;;5032028;28;20209;-52
2023/12/01 00:17:01;;;;;;;6.63;5.83;;;6.40;43.20;;;;;;5031872;28;20713;-53
2023/12/01 00:19:27;;;;;;;3.17;1.93;;;6.40;43.10;;;;;;5031931;28;20170;-58
2023/12/01 00:21:53;;;;;;;2.00;1.53;;;6.40;43.20;;;;;;5031776;28;20200;-50
2023/12/01 00:24:19;;;;;;;3.93;3.30;;;6.40;43.50;;;;;;5031972;28;20749;-50
2023/12/01 00:26:45;;;;;;;2.10;2.00;;;6.40;43.50;;;;;;5031660;28;20174;-54
2023/12/01 00:29:11;;;;;;;1.15;1.05;;;6.40;43.50;;;;;;5032106;28;20559;-55
2023/12/01 00:31:37;;;;;;;6.85;3.15;;;6.40;43.50;;;;;;5031625;28;20182;-50
2023/12/01 00:34:03;;;;;;;5.15;3.42;;;6.40;43.50;;;;;;5031701;28;20205;-51
2023/12/01 00:36:29;;;;;;;9.05;2.47;;;6.40;43.90;;;;;;5031591;28;20201;-58
2023/12/01 00:38:55;;;;;;;4.32;1.83;;;6.40;43.60;;;;;;5031858;28;20217;-51
2023/12/01 00:41:21;;;;;;;4.30;2.60;;;6.40;43.60;;;;;;5031954;28;20564;-51
2023/12/01 00:43:47;;;;;;;11.57;3.17;;;6.40;43.60;;;;;;5023593;28;20202;-58
2023/12/01 00:46:13;;;;;;;2.83;1.85;;;6.40;43.20;;;;;;5031493;28;20260;-51
2023/12/01 00:48:38;;;;;;;3.97;2.00;;;6.40;43.10;;;;;;5031652;28;20268;-57
2023/12/01 00:51:05;;;;;;;4.43;3.23;;;6.40;43.20;;;;;;5032789;28;20182;-54
2023/12/01 00:53:30;;;;;;;4.75;2.65;;;6.30;43.40;;;;;;5035638;28;20817;-52
2023/12/01 00:55:56;;;;;;;5.33;3.30;;;6.30;43.50;;;;;;5035647;28;20181;-53
2023/12/01 00:58:22;;;;;;;3.20;1.63;;;6.30;42.90;;;;;;5035668;28;20177;-54
2023/12/01 01:00:48;;;;;;;6.67;6.17;;;6.30;42.60;;;;;;5035668;28;20204;-53
2023/12/01 01:03:14;;;;;;;4.77;4.20;;;6.20;42.50;;;;;;5035544;28;20208;-53
2023/12/01 01:05:40;;;;;;;3.17;2.97;;;6.20;42.60;;;;;;5035405;28;20178;-56
2023/12/01 01:08:06;;;;;;;6.35;2.85;;;6.10;42.60;;;;;;5035664;28;20184;-52
2023/12/01 01:10:31;;;;;;;4.00;3.60;;;6.10;42.70;;;;;;5035544;28;20181;-51
2023/12/01 01:12:57;;;;;;;6.07;4.50;;;6.10;42.70;;;;;;5035331;28;20514;-54
2023/12/01 01:15:23;;;;;;;10.53;5.17;;;6.00;42.80;;;;;;5035047;28;20825;-56
2023/12/01 01:17:49;;;;;;;6.05;4.28;;;6.00;43.10;;;;;;5035450;28;20228;-52
2023/12/01 01:20:15;;;;;;;3.83;2.50;;;6.10;43.30;;;;;;5035258;28;20182;-54
2023/12/01 01:22:41;;;;;;;2.50;2.30;;;6.10;43.40;;;;;;5035182;28;20457;-55
2023/12/01 01:25:07;;;;;;;3.93;3.43;;;6.20;43.20;;;;;;5035112;28;20422;-55
2023/12/01 01:27:33;;;;;;;5.82;2.65;;;6.20;42.90;;;;;;5035137;28;20177;-51
2023/12/01 01:29:59;;;;;;;7.73;4.93;;;6.20;42.50;;;;;;5035171;28;20539;-53
2023/12/01 01:32:25;;;;;;;3.28;2.97;;;6.20;42.70;;;;;;5034979;28;20807;-57
2023/12/01 01:34:50;;;;;;;5.77;3.97;;;6.20;42.70;;;;;;5034998;28;20205;-56
2023/12/01 01:37:16;;;;;;;2.67;2.47;;;6.20;42.50;;;;;;5035153;28;20417;-50
2023/12/01 01:39:42;;;;;;;4.43;3.87;;;6.20;42.40;;;;;;5034943;28;21288;-53
2023/12/01 01:42:27;;;;;;;6.32;5.72;;;6.20;42.10;;;;;;5034865;28;20456;-56
2023/12/01 01:44:52;;;;;;;3.20;2.55;;;6.20;42.10;;;;;;5034930;28;20194;-54
2023/12/01 01:47:19;;;;;;;3.90;2.37;;;6.10;42.30;;;;;;5034665;28;20261;-55
2023/12/01 01:49:46;;;;;;;6.53;5.10;;;6.10;42.40;;;;;;5034689;28;20618;-51
2023/12/01 01:52:31;;;;;;;2.85;2.65;;;6.10;42.20;;;;;;5034868;28;20202;-54
2023/12/01 01:54:57;;;;;;;3.80;2.55;;;6.00;41.90;;;;;;5034453;28;20193;-54
2023/12/01 01:57:23;;;;;;;13.50;4.80;;;6.00;42.00;;;;;;5034692;28;20526;-51
2023/12/01 01:59:49;;;;;;;1.35;0.82;;;5.90;41.50;;;;;;5026636;28;20406;-53
2023/12/01 02:02:15;;;;;;;9.38;3.78;;;5.80;41.30;;;;;;5033631;28;20223;-54
2023/12/01 02:04:41;;;;;;;5.40;2.83;;;5.80;42.30;;;;;;5034154;28;20737;-51
2023/12/01 02:07:08;;;;;;;1.73;1.63;;;5.70;41.70;;;;;;5034395;28;20972;-52
2023/12/01 02:09:34;;;;;;;4.07;3.63;;;5.60;42.00;;;;;;5034290;28;20459;-56
2023/12/01 02:12:01;;;;;;;2.58;2.35;;;5.70;42.10;;;;;;5034251;28;20190;-51
2023/12/01 02:14:27;;;;;;;14.27;8.20;;;5.70;42.00;;;;;;5034198;28;20213;-49
2023/12/01 02:16:53;;;;;;;7.27;3.73;;;5.70;41.60;;;;;;5034273;28;20178;-59
2023/12/01 02:19:19;;;;;;;5.30;2.70;;;5.60;41.70;;;;;;5034218;28;20783;-49
2023/12/01 02:21:46;;;;;;;4.23;3.93;;;5.60;41.90;;;;;;5034039;28;20190;-49
2023/12/01 02:24:12;;;;;;;7.28;5.10;;;5.50;42.20;;;;;;5034092;28;20175;-53
2023/12/01 02:26:38;;;;;;;3.78;3.47;;;5.50;42.30;;;;;;5033910;28;20182;-57
2023/12/01 02:29:05;;;;;;;6.07;5.40;;;5.60;42.10;;;;;;5034125;28;20175;-51
2023/12/01 02:31:31;;;;;;;4.05;3.65;;;5.60;42.20;;;;;;5034018;28;20418;-52
2023/12/01 02:33:57;;;;;;;2.83;2.55;;;5.60;42.00;;;;;;5033912;28;20202;-56
2023/12/01 02:36:23;;;;;;;21.08;6.13;;;5.60;41.80;;;;;;5033777;28;20662;-51
2023/12/01 02:38:49;;;;;;;5.43;3.33;;;5.60;41.90;;;;;;5033914;28;20183;-53
2023/12/01 02:41:15;;;;;;;6.27;4.23;;;5.50;42.10;;;;;;5033838;28;20186;-57
2023/12/01 02:43:41;;;;;;;5.78;4.60;;;5.50;42.10;;;;;;5033728;28;20802;-50
2023/12/01 02:46:07;;;;;;;4.07;3.70;;;5.50;41.90;;;;;;5033655;28;20182;-57
2023/12/01 02:48:33;;;;;;;4.10;3.67;;;5.50;42.10;;;;;;5033848;28;20421;-56
2023/12/01 02:51:11;;;;;;;5.43;3.23;;;5.50;42.20;;;;;;5033657;28;20412;-50
2023/12/01 02:53:48;;;;;;;5.80;2.92;;;5.50;41.90;;;;;;5033222;28;20846;-53
2023/12/01 02:56:14;;;;;;;5.50;3.53;;;5.50;41.60;;;;;;5033401;28;20180;-55
2023/12/01 02:58:40;;;;;;;3.83;2.43;;;5.50;41.50;;;;;;5033544;28;20517;-52
2023/12/01 03:01:06;;;;;;;4.40;4.10;;;5.40;41.60;;;;;;5033556;28;20419;-50
2023/12/01 03:03:32;;;;;;;11.95;5.60;;;5.40;42.00;;;;;;5033210;28;20202;-60
2023/12/01 03:05:57;;;;;;;4.33;3.07;;;5.40;41.90;;;;;;5033288;28;20750;-56
2023/12/01 03:08:23;;;;;;;7.50;2.93;;;5.40;41.80;;;;;;5033308;28;20512;-51
2023/12/01 03:10:49;;;;;;;4.60;2.20;;;5.40;41.70;;;;;;5025406;28;20181;-51
2023/12/01 03:13:15;;;;;;;3.43;2.43;;;5.40;41.50;;;;;;5033096;28;20204;-52
2023/12/01 03:15:41;;;;;;;12.70;3.33;;;5.40;41.70;;;;;;5033037;28;20202;-53
2023/12/01 03:18:07;;;;;;;4.80;4.20;;;5.40;42.10;;;;;;5033157;28;20224;-56
2023/12/01 03:20:33;;;;;;;3.92;3.63;;;5.40;42.40;;;;;;5032858;28;20963;-57
2023/12/01 03:22:58;;;;;;;9.00;4.80;;;5.40;42.20;;;;;;5033074;28;20212;-51
2023/12/01 03:25:42;;;;;;;4.47;3.03;;;5.50;42.30;;;;;;5032879;28;20786;-51
2023/12/01 03:28:08;;;;;;;3.75;2.55;;;5.50;42.10;;;;;;5032950;28;20675;-51
2023/12/01 03:30:33;;;;;;;3.97;3.63;;;5.50;42.00;;;;;;5032765;28;20195;-50
2023/12/01 03:32:59;;;;;;;14.07;3.97;;;5.50;42.00;;;;;;5032749;28;20206;-55
2023/12/01 03:35:25;;;;;;;7.40;3.37;;;5.50;41.70;;;;;;5031246;28;20276;-52
2023/12/01 03:37:56;;;;;;;9.10;4.33;;;5.50;41.70;;;;;;5032765;28;20173;-51
2023/12/01 03:40:26;;;;;;;3.35;3.05;;;5.40;41.70;;;;;;5032796;28;20951;-54
2023/12/01 03:42:52;;;;;;;5.30;3.15;;;5.50;41.70;;;;;;5032574;28;20228;-50
2023/12/01 03:45:18;;;;;;;2.43;2.23;;;5.40;41.50;;;;;;5032576;28;20174;-51
2023/12/01 03:47:45;;;;;;;3.47;3.17;;;5.40;41.80;;;;;;5032503;28;20408;-53
2023/12/01 03:50:12;;;;;;;6.15;3.45;;;5.30;41.90;;;;;;5032552;28;20440;-54
2023/12/01 03:52:41;;;;;;;5.63;4.57;;;5.30;42.00;;;;;;5032327;28;20225;-49
2023/12/01 03:55:08;;;;;;;19.65;6.60;;;5.40;42.00;;;;;;5032345;28;20170;-54
2023/12/01 03:57:34;;;;;;;4.35;3.03;;;5.50;41.80;;;;;;5032363;28;20193;-56
2023/12/01 04:00:00;;;;;;;3.07;2.83;;;5.40;41.60;;;;;;5032280;28;20166;-55
2023/12/01 04:02:26;;;;;;;4.43;4.10;;;5.40;41.50;;;;;;5032075;28;20428;-50
2023/12/01 04:04:53;;;;;;;13.57;6.87;;;5.30;41.60;;;;;;5032312;28;20210;-53
2023/12/01 04:07:19;;;;;;;4.47;4.07;;;5.30;41.70;;;;;;5032093;28;20406;-57
2023/12/01 04:09:45;;;;;;;2.20;1.70;;;5.40;41.70;;;;;;5032444;28;21314;-52
2023/12/01 04:12:10;;;;;;;2.90;1.87;;;5.40;41.80;;;;;;5032138;28;20206;-51
2023/12/01 04:14:36;;;;;;;4.10;2.77;;;5.40;41.70;;;;;;5031915;28;20232;-53
2023/12/01 04:17:13;;;;;;;2.23;2.07;;;5.40;41.50;;;;;;5031955;28;20256;-51
2023/12/01 04:19:39;;;;;;;8.93;4.22;;;5.30;41.40;;;;;;5032029;28;20165;-57
2023/12/01 04:22:05;;;;;;;10.17;5.67;;;5.30;41.70;;;;;;5031851;28;20274;-51
2023/12/01 04:24:35;;;;;;;2.10;2.00;;;5.30;41.80;;;;;;5032009;28;20429;-51
2023/12/01 04:27:02;;;;;;;7.20;2.78;;;5.30;41.60;;;;;;5031243;28;20178;-55
2023/12/01 04:29:31;;;;;;;4.55;2.40;;;5.30;41.70;;;;;;5031820;28;20175;-57
2023/12/01 04:32:00;;;;;;;3.83;3.53;;;5.30;41.60;;;;;;5031880;28;20265;-50
2023/12/01 04:34:26;;;;;;;7.28;3.20;;;5.30;41.50;;;;;;5031777;28;20205;-54
2023/12/01 04:36:53;;;;;;;2.17;2.07;;;5.30;41.60;;;;;;5031789;28;20304;-50
2023/12/01 04:39:20;;;;;;;3.45;3.17;;;5.30;41.60;;;;;;5031804;28;20179;-53
2023/12/01 04:41:49;;;;;;;6.15;5.63;;;5.40;41.60;;;;;;5031555;28;20564;-55
2023/12/01 04:44:14;;;;;;;2.15;1.95;;;5.40;41.50;;;;;;5031772;28;20186;-56
2023/12/01 04:46:40;;;;;;;4.73;3.50;;;5.40;41.40;;;;;;5031616;28;20548;-51
2023/12/01 04:49:08;;;;;;;4.40;3.13;;;5.50;41.60;;;;;;5031790;28;20216;-58
2023/12/01 04:51:36;;;;;;;5.60;4.15;;;5.50;41.60;;;;;;5031587;28;20416;-57
2023/12/01 04:54:06;;;;;;;4.72;2.97;;;5.50;41.80;;;;;;5031434;28;20202;-51
2023/12/01 04:56:33;;;;;;;2.28;1.88;;;5.50;42.00;;;;;;5031468;28;20174;-56
2023/12/01 04:59:00;;;;;;;5.20;4.72;;;5.60;41.70;;;;;;5031608;28;20174;-49
2023/12/01 05:01:25;;;;;;;5.13;4.65;;;5.60;41.60;;;;;;5031723;28;20657;-53
2023/12/01 05:03:51;;;;;;;19.73;5.70;;;5.60;41.40;;;;;;5023381;28;20212;-53
2023/12/01 05:06:17;;;;;;;3.00;2.80;;;5.60;41.50;;;;;;5031390;28;20182;-51
2023/12/01 05:08:43;;;;;;;5.07;2.83;;;5.60;41.50;;;;;;5031411;28;20186;-51
2023/12/01 05:11:09;;;;;;;2.03;1.83;;;5.60;41.70;;;;;;5031497;28;20178;-52
2023/12/01 05:13:35;;;;;;;10.97;4.07;;;5.70;41.80;;;;;;5031246;28;20239;-53
2023/12/01 05:16:00;;;;;;;4.67;4.33;;;5.70;41.90;;;;;;5031397;28;20409;-50
2023/12/01 05:18:26;;;;;;;5.07;3.20;;;5.70;41.90;;;;;;5031491;28;20182;-49
2023/12/01 05:20:53;;;;;;;5.13;4.20;;;5.80;41.90;;;;;;5023296;28;20182;-58
2023/12/01 05:23:19;;;;;;;2.80;2.15;;;5.80;41.90;;;;;;5031356;28;20440;-57
2023/12/01 05:25:46;;;;;;;7.33;3.53;;;5.80;42.00;;;;;;5031239;28;20240;-50
2023/12/01 05:28:12;;;;;;;5.43;4.63;;;5.80;42.00;;;;;;5031333;28;20980;-52
2023/12/01 05:30:44;;;;;;;5.68;5.07;;;5.90;42.10;;;;;;5031377;28;20229;-53
2023/12/01 05:33:09;;;;;;;4.22;3.83;;;5.90;42.20;;;;;;5031218;28;20198;-53
2023/12/01 05:35:37;;;;;;;1.77;1.67;;;5.90;42.20;;;;;;5031155;28;20173;-55
2023/12/01 05:38:04;;;;;;;1.95;1.75;;;5.90;42.20;;;;;;5033738;28;20408;-55
2023/12/01 05:40:30;;;;;;;5.00;4.18;;;5.90;42.20;;;;;;5034963;28;20255;-53
2023/12/01 05:42:58;;;;;;;4.57;4.20;;;5.90;42.10;;;;;;5034784;28;20264;-55
2023/12/01 05:45:26;;;;;;;4.43;4.07;;;5.90;42.10;;;;;;5034685;28;20181;-51
2023/12/01 05:47:52;;;;;;;17.50;7.53;;;5.90;42.10;;;;;;5034873;28;20166;-50
2023/12/01 05:50:27;;;;;;;4.47;2.08;;;5.90;42.00;;;;;;5034681;28;20174;-53
2023/12/01 05:52:57;;;;;;;4.03;3.72;;;5.90;41.90;;;;;;5034603;28;20229;-50
2023/12/01 05:55:25;;;;;;;3.22;2.17;;;5.90;41.50;;;;;;5034630;28;20174;-54
2023/12/01 05:57:58;;;;;;;9.88;5.88;;;5.90;41.60;;;;;;5034591;28;20176;-54
2023/12/01 06:00:30;;;;;;;3.65;1.50;;;5.90;41.80;;;;;;5050734;28;20662;-52
2023/12/01 06:03:06;;;;;;;2.33;2.13;;;5.90;41.50;;;;;;5054331;28;20224;-56
2023/12/01 06:05:32;;;;;;;14.32;3.58;;;5.80;41.60;;;;;;5054316;28;20183;-53
2023/12/01 06:07:59;;;;;;;7.50;2.55;;;5.90;42.00;;;;;;5054407;28;20231;-51
2023/12/01 06:10:27;;;;;;;2.10;1.83;;;5.90;42.40;;;;;;5054385;28;20536;-54
2023/12/01 06:12:53;;;;;;;5.72;5.25;;;5.80;41.30;;;;;;5054140;28;20197;-57
2023/12/01 06:15:20;;;;;;;1.35;1.25;;;5.70;41.10;;;;;;5054056;28;20192;-51
2023/12/01 06:17:48;;;;;;;2.33;2.13;;;5.70;41.20;;;;;;5054262;28;20170;-54
2023/12/01 06:20:19;;;;;;;6.25;3.33;;;5.60;41.20;;;;;;5054165;28;20871;-56
2023/12/01 06:22:54;;;;;;;2.03;1.85;;;5.60;41.30;;;;;;5053909;28;20220;-50
2023/12/01 06:25:26;;;;;;;1.52;1.05;;;5.60;41.50;;;;;;5054070;28;20169;-57
2023/12/01 06:27:56;;;;;;;1.77;1.67;;;5.70;41.30;;;;;;5053909;28;20219;-51
2023/12/01 06:30:24;;;;;;;4.78;4.22;;;5.70;40.90;;;;;;5053966;28;20161;-50
2023/12/01 06:32:50;;;;;;;8.43;5.00;;;5.60;40.90;;;;;;5053706;28;20190;-55
2023/12/01 06:35:17;;;;;;;4.10;3.13;;;5.50;40.80;;;;;;5053790;28;20174;-52
2023/12/01 06:37:44;;;;;;;3.25;2.50;;;5.50;41.20;;;;;;5053787;28;20489;-50
2023/12/01 06:40:12;;;;;;;3.65;3.35;;;5.50;41.40;;;;;;5053817;28;20193;-57
2023/12/01 06:42:45;;;;;;;8.23;4.40;;;5.60;41.80;;;;;;5053539;28;20188;-58
2023/12/01 06:45:13;;;;;;;8.52;4.65;;;5.60;41.90;;;;;;5053661;28;20674;-50
2023/12/01 06:47:40;;;;;;;5.45;5.15;;;5.70;41.90;;;;;;5053582;28;20180;-56
2023/12/01 06:50:09;;;;;;;3.42;3.00;;;5.70;41.90;;;;;;5053170;28;20196;-52
2023/12/01 06:52:36;;;;;;;1.80;1.70;;;5.70;41.90;;;;;;5053393;28;20193;-51
2023/12/01 06:55:04;;;;;;;9.10;5.55;;;5.80;41.90;;;;;;5053286;28;20197;-56
2023/12/01 06:57:30;;;;;;;2.75;2.42;;;5.80;41.90;;;;;;5053400;28;20169;-51
2023/12/01 06:59:56;;;;;;;4.53;4.10;;;5.80;41.80;;;;;;5053436;28;20195;-51
2023/12/01 07:02:23;;;;;;;8.10;5.07;;;5.80;41.90;;;;;;5053298;28;20675;-53
2023/12/01 07:04:49;;;;;;;14.70;4.32;;;5.90;41.80;;;;;;5053349;28;20531;-56
2023/12/01 07:07:15;;;;;;;5.30;4.57;;;5.90;41.80;;;;;;5053081;28;20253;-50
2023/12/01 07:09:45;;;;;;;3.90;3.00;;;5.90;41.90;;;;;;5053092;28;20415;-52
2023/12/01 07:12:11;;;;;;;5.00;4.60;;;5.90;41.90;;;;;;5053070;28;20424;-58
2023/12/01 07:14:38;;;;;;;3.90;3.53;;;5.90;42.00;;;;;;5053086;28;20285;-51
2023/12/01 07:17:07;;;;;;;3.85;3.47;;;5.90;41.90;;;;;;5052957;28;20441;-56
2023/12/01 07:19:34;;;;;;;5.85;3.10;;;5.90;41.90;;;;;;5052952;28;20690;-49
2023/12/01 07:22:00;;;;;;;2.58;2.38;;;5.90;42.00;;;;;;5052785;28;20679;-53
2023/12/01 07:24:26;;;;;;;4.53;3.20;;;5.90;42.00;;;;;;5052949;28;20238;-56
2023/12/01 07:26:52;;;;;;;7.83;3.47;;;6.00;41.90;;;;;;5052616;28;20472;-51
2023/12/01 07:29:18;;;;;;;2.77;2.57;;;6.00;41.80;;;;;;5052864;28;20193;-51
2023/12/01 07:31:45;;;;;;;10.45;5.35;;;6.00;41.80;;;;;;5052670;28;20423;-57
2023/12/01 07:34:13;;;;;;;8.88;5.47;;;5.90;41.90;;;;;;5052766;28;20190;-57
2023/12/01 07:36:40;;;;;;;8.93;2.83;;;6.00;41.90;;;;;;5052433;28;20165;-49
2023/12/01 07:39:06;;;;;;;4.15;3.78;;;6.00;41.90;;;;;;5052696;28;20177;-56
2023/12/01 07:41:33;;;;;;;4.47;4.05;;;6.00;41.90;;;;;;5052395;28;20165;-51
2023/12/01 07:43:59;;;;;;;1.33;1.23;;;6.00;41.80;;;;;;5052587;28;20227;-50
2023/12/01 07:46:24;;;;;;;3.55;3.08;;;6.00;42.00;;;;;;5052376;28;20574;-57
2023/12/01 07:48:50;;;;;;;5.80;4.43;;;6.00;41.90;;;;;;5052330;28;20184;-58
2023/12/01 07:51:16;;;;;;;2.80;2.57;;;6.00;41.90;;;;;;5052397;28;20419;-51
2023/12/01 07:53:45;;;;;;;6.70;3.92;;;6.00;41.90;;;;;;5052127;28;20957;-58
2023/12/01 07:56:21;;;;;;;5.43;4.53;;;6.00;41.90;;;;;;5052173;28;20195;-50
2023/12/01 07:58:48;;;;;;;4.20;2.70;;;6.00;41.80;;;;;;5052266;28;20169;-58
2023/12/01 08:01:14;;;;;;;7.70;3.22;;;6.00;41.80;;;;;;5051436;28;20537;-58
2023/12/01 08:03:45;;;;;;;3.65;2.80;;;6.00;41.80;;;;;;5052067;28;20192;-51
2023/12/01 08:06:13;;;;;;;11.52;4.63;;;6.10;41.90;;;;;;5052088;28;20177;-56
2023/12/01 08:08:39;;;;;;;3.03;2.70;;;6.00;41.90;;;;;;5052059;28;20185;-51
2023/12/01 08:11:05;;;;;;;2.30;2.10;;;6.10;41.90;;;;;;5052082;28;20586;-50
2023/12/01 08:13:31;;;;;;;4.05;3.58;;;6.10;41.90;;;;;;5051906;28;20197;-56
2023/12/01 08:15:57;;;;;;;2.50;2.00;;;6.00;41.90;;;;;;5051914;28;20714;-54
2023/12/01 08:18:23;;;;;;;3.00;2.70;;;6.10;42.00;;;;;;5051882;28;20417;-50
2023/12/01 08:20:52;;;;;;;2.90;2.70;;;6.10;42.00;;;;;;5051757;28;20919;-56
2023/12/01 08:23:18;;;;;;;3.75;3.30;;;6.10;42.00;;;;;;5051935;28;20559;-58
2023/12/01 08:25:44;;;;;;;4.43;3.67;;;6.10;42.10;;;;;;5051749;28;20177;-51
2023/12/01 08:28:10;;;;;;;6.85;2.85;;;6.10;42.00;;;;;;5051896;28;20586;-58
2023/12/01 08:30:39;;;;;;;10.15;6.35;;;6.10;42.00;;;;;;5051788;28;20363;-55
2023/12/01 08:33:05;;;;;;;1.88;1.50;;;6.20;42.00;;;;;;5051702;28;20193;-51
2023/12/01 08:35:31;;;;;;;3.88;3.63;;;6.20;41.90;;;;;;5051586;28;20169;-52
2023/12/01 08:37:57;;;;;;;3.75;3.38;;;6.20;41.90;;;;;;5051804;28;20165;-57
2023/12/01 08:40:23;;;;;;;5.23;3.10;;;6.20;41.80;;;;;;5051686;28;20770;-50
2023/12/01 08:42:52;;;;;;;5.30;4.73;;;6.20;41.90;;;;;;5051607;28;20530;-57
2023/12/01 08:45:19;;;;;;;4.70;4.25;;;6.20;41.90;;;;;;5051437;28;20172;-57
2023/12/01 08:47:44;;;;;;;4.72;4.43;;;6.20;41.90;;;;;;5051582;28;20173;-50
2023/12/01 08:50:10;;;;;;;4.57;3.63;;;6.20;41.80;;;;;;5051682;28;20566;-51
2023/12/01 08:52:40;;;;;;;11.23;5.72;;;6.20;41.90;;;;;;5051452;28;20196;-56
2023/12/01 08:55:07;;;;;;;9.50;5.97;;;6.20;41.80;;;;;;5051333;28;20600;-51
2023/12/01 08:57:33;;;;;;;9.90;3.10;;;6.20;41.90;;;;;;5051503;28;20655;-53
2023/12/01 08:59:59;;;;;;;3.70;3.08;;;6.20;41.80;;;;;;5051487;28;20174;-55
2023/12/01 09:02:25;;;;;;;7.28;5.10;;;6.20;41.80;;;;;;5051414;28;20193;-51
2023/12/01 09:04:51;;;;;;;8.30;6.67;;;6.20;41.90;;;;;;5051411;28;20661;-56
2023/12/01 09:07:17;;;;;;;3.00;1.93;;;6.20;41.90;;;;;;5051300;28;20438;-59
2023/12/01 09:09:43;;;;;;;3.43;3.13;;;6.20;41.90;;;;;;5051330;28;20423;-50
2023/12/01 09:12:09;;;;;;;7.22;4.65;;;6.20;41.80;;;;;;5052747;28;20188;-54
2023/12/01 09:14:35;;;;;;;11.43;4.27;;;6.20;41.80;;;;;;5055219;28;20207;-51
2023/12/01 09:17:01;;;;;;;5.60;4.87;;;6.20;41.90;;;;;;5055274;28;20418;-53
2023/12/01 09:19:26;;;;;;;3.80;3.50;;;6.30;42.00;;;;;;5055298;28;20411;-52
2023/12/01 09:21:52;;;;;;;10.37;7.17;;;6.30;41.80;;;;;;5054957;28;20531;-53
2023/12/01 09:24:18;;;;;;;4.00;2.67;;;6.30;41.80;;;;;;5053852;28;20428;-54
2023/12/01 09:26:44;;;;;;;3.97;3.67;;;6.30;41.50;;;;;;5054922;28;20201;-51
2023/12/01 09:29:10;;;;;;;6.35;4.25;;;6.30;41.80;;;;;;5055050;28;20177;-52
2023/12/01 09:31:43;;;;;;;22.40;5.50;;;6.30;41.80;;;;;;5055066;28;20177;-58
2023/12/01 09:34:09;;;;;;;7.13;5.13;;;6.30;41.80;;;;;;5054893;28;20547;-51
2023/12/01 09:36:35;;;;;;;8.33;2.73;;;6.30;42.00;;;;;;5054659;28;20185;-53
2023/12/01 09:39:01;;;;;;;4.20;3.37;;;6.30;41.90;;;;;;5054996;28;20410;-55
2023/12/01 09:41:28;;;;;;;8.13;6.67;;;6.30;41.90;;;;;;5054008;28;20400;-51
2023/12/01 09:43:55;;;;;;;3.15;2.05;;;6.30;41.80;;;;;;5054367;28;20902;-54
2023/12/01 09:46:24;;;;;;;4.80;4.45;;;6.30;41.80;;;;;;5054163;28;20173;-57
2023/12/01 09:48:49;;;;;;;15.75;9.13;;;6.30;41.80;;;;;;5054631;28;20657;-50
2023/12/01 09:51:15;;;;;;;10.13;3.60;;;6.30;41.80;;;;;;5054369;28;20212;-56
2023/12/01 09:53:41;;;;;;;2.47;2.27;;;6.30;41.90;;;;;;5054434;28;20201;-52
2023/12/01 09:56:08;;;;;;;4.50;4.15;;;6.30;42.00;;;;;;5054476;28;20431;-55
2023/12/01 09:58:36;;;;;;;9.45;5.22;;;6.30;41.90;;;;;;5054520;28;20643;-56
2023/12/01 10:01:02;;;;;;;9.32;8.45;;;6.30;41.90;;;;;;5054566;28;20296;-53
2023/12/01 10:03:28;;;;;;;7.22;3.83;;;6.30;41.90;;;;;;5054412;28;20623;-56
2023/12/01 10:06:01;;;;;;;6.82;4.25;;;6.30;41.90;;;;;;5054225;28;20220;-56
2023/12/01 10:08:27;;;;;;;13.25;5.35;;;6.30;41.90;;;;;;5054422;28;20169;-50
2023/12/01 10:10:53;;;;;;;7.38;4.93;;;6.30;42.00;;;;;;5054293;28;20227;-54
2023/12/01 10:13:20;;;;;;;4.15;2.65;;;6.30;41.90;;;;;;5054102;28;20205;-54
2023/12/01 10:15:47;;;;;;;6.60;5.93;;;6.30;42.00;;;;;;5054096;28;20248;-51
2023/12/01 10:18:19;;;;;;;3.50;3.13;;;6.40;42.00;;;;;;5054271;28;20185;-55
2023/12/01 10:20:59;;;;;;;4.07;3.67;;;6.40;41.90;;;;;;5054013;28;20180;-51
2023/12/01 10:23:27;;;;;;;4.43;3.35;;;6.40;41.90;;;;;;5053058;28;20193;-56
2023/12/01 10:25:53;;;;;;;12.93;5.32;;;6.40;41.50;;;;;;5053919;28;20201;-50
2023/12/01 10:28:20;;;;;;;9.65;4.13;;;6.40;41.50;;;;;;5054161;28;20177;-53
2023/12/01 10:30:53;;;;;;;10.45;3.30;;;6.40;41.50;;;;;;5054002;28;20197;-54
2023/12/01 10:33:23;;;;;;;6.50;2.90;;;6.40;41.70;;;;;;5053828;28;20197;-51
2023/12/01 10:36:09;;;;;;;3.10;2.80;;;6.40;41.80;;;;;;5053687;28;20213;-54
2023/12/01 10:38:36;;;;;;;3.00;2.70;;;6.40;42.00;;;;;;5053933;28;20173;-51
2023/12/01 10:41:03;;;;;;;2.72;2.53;;;6.40;42.00;;;;;;5053856;28;20169;-55
2023/12/01 10:43:30;;;;;;;9.85;3.47;;;6.40;42.00;;;;;;5053674;28;20247;-51
2023/12/01 10:46:04;;;;;;;8.70;4.20;;;6.40;41.90;;;;;;5053441;28;20264;-58
2023/12/01 10:48:32;;;;;;;9.00;4.63;;;6.40;41.50;;;;;;5053904;28;20184;-52
2023/12/01 10:51:00;;;;;;;3.30;2.60;;;6.40;41.50;;;;;;5053543;28;20181;-51
2023/12/01 10:53:28;;;;;;;12.38;3.90;;;6.40;41.60;;;;;;5053331;28;20205;-53
2023/12/01 10:55:55;;;;;;;5.00;3.80;;;6.40;41.70;;;;;;5053365;28;20177;-54
2023/12/01 10:58:23;;;;;;;3.65;3.45;;;6.40;41.60;;;;;;5053554;28;20196;-50
2023/12/01 11:00:49;;;;;;;4.53;3.47;;;6.40;41.80;;;;;;5053273;28;20169;-53
2023/12/01 11:03:19;;;;;;;19.88;6.18;;;6.40;41.90;;;;;;5053317;28;20264;-57
2023/12/01 11:05:50;;;;;;;7.28;5.50;;;6.40;42.00;;;;;;5052970;28;20169;-51
2023/12/01 11:08:24;;;;;;;7.10;4.40;;;6.50;42.20;;;;;;5053476;28;20567;-49
2023/12/01 11:11:24;;;;;;;5.15;4.45;;;6.50;42.10;;;;;;5053197;28;20306;-52
2023/12/01 11:14:15;;;;;;;4.60;3.63;;;6.50;42.00;;;;;;5052971;28;20204;-57
2023/12/01 11:16:42;;;;;;;13.88;3.90;;;6.50;41.90;;;;;;5053071;28;20170;-54
2023/12/01 11:19:09;;;;;;;15.20;6.65;;;6.50;41.80;;;;;;5053105;28;20386;-56
2023/12/01 11:21:35;;;;;;;1.27;1.17;;;6.40;41.80;;;;;;5052700;28;20233;-50
2023/12/01 11:24:35;;;;;;;7.10;3.13;;;6.40;41.90;;;;;;5052974;28;20675;-50
2023/12/01 11:27:05;;;;;;;6.97;3.45;;;6.40;41.90;;;;;;5052501;28;20632;-57
2023/12/01 11:29:36;;;;;;;10.55;6.22;;;6.40;42.10;;;;;;5052917;28;20190;-51
2023/12/01 11:32:03;;;;;;;7.65;4.32;;;6.40;41.90;;;;;;5052723;28;20174;-51
2023/12/01 11:34:30;;;;;;;23.02;4.72;;;6.50;42.50;;;;;;5052553;28;20236;-54
2023/12/01 11:37:06;;;;;;;2.95;2.17;;;6.50;41.70;;;;;;5052596;28;20192;-51
2023/12/01 11:39:32;;;;;;;7.53;4.63;;;6.50;41.80;;;;;;5052791;28;20201;-55
2023/12/01 11:41:57;;;;;;;6.40;2.77;;;6.50;41.90;;;;;;5052463;28;20193;-49
2023/12/01 11:44:34;;;;;;;4.90;3.80;;;6.50;42.50;;;;;;5052538;28;20404;-57
2023/12/01 11:47:02;;;;;;;9.07;4.13;;;6.50;41.90;;;;;;5052712;28;20169;-54
2023/12/01 11:49:32;;;;;;;8.55;6.10;;;6.50;41.80;;;;;;5052486;28;20196;-51
2023/12/01 11:51:59;;;;;;;14.35;3.20;;;6.50;41.60;;;;;;5052360;28;20236;-54
2023/12/01 11:54:25;;;;;;;7.22;3.20;;;6.50;41.50;;;;;;5052443;28;20243;-59
2023/12/01 11:56:55;;;;;;;8.23;3.83;;;6.40;41.60;;;;;;5052217;28;20169;-51
2023/12/01 11:59:22;;;;;;;6.93;4.72;;;6.40;41.80;;;;;;5052309;28;20173;-58
2023/12/01 12:01:48;;;;;;;6.43;4.53;;;6.50;42.00;;;;;;5052162;28;20173;-52
2023/12/01 12:04:16;;;;;;;3.97;3.57;;;6.50;42.10;;;;;;5052266;28;20185;-51
2023/12/01 12:06:44;;;;;;;7.45;3.70;;;6.50;42.20;;;;;;5052186;28;20594;-55
2023/12/01 12:09:17;;;;;;;8.63;3.80;;;6.50;42.20;;;;;;5052224;28;20169;-51
2023/12/01 12:11:55;;;;;;;8.45;5.40;;;6.50;42.00;;;;;;5052165;28;20177;-51
2023/12/01 12:14:28;;;;;;;3.40;2.90;;;6.50;41.90;;;;;;5052152;28;20205;-54
2023/12/01 12:16:54;;;;;;;7.15;3.78;;;6.50;42.10;;;;;;5051943;28;20192;-51
2023/12/01 12:19:21;;;;;;;10.45;6.25;;;6.50;42.20;;;;;;5052025;28;20216;-58
2023/12/01 12:21:48;;;;;;;5.50;3.92;;;6.50;42.20;;;;;;5051716;28;20188;-52
2023/12/01 12:24:15;;;;;;;4.00;3.20;;;6.50;42.30;;;;;;5052032;28;20180;-53
2023/12/01 12:26:42;;;;;;;6.68;3.42;;;6.50;42.20;;;;;;5051712;28;20195;-58
2023/12/01 12:29:08;;;;;;;5.18;4.60;;;6.60;42.40;;;;;;5051903;28;20205;-52
2023/12/01 12:31:35;;;;;;;7.75;4.50;;;6.50;42.20;;;;;;5051732;28;20254;-52
2023/12/01 12:34:04;;;;;;;3.95;2.10;;;6.50;42.90;;;;;;5051677;28;20706;-55
2023/12/01 12:36:31;;;;;;;8.07;3.10;;;6.60;42.20;;;;;;5051569;28;20176;-51
2023/12/01 12:39:03;;;;;;;6.05;5.15;;;6.60;42.30;;;;;;5051652;28;20540;-53
2023/12/01 12:41:34;;;;;;;21.90;13.07;;;6.50;42.30;;;;;;5051714;28;20554;-55
2023/12/01 12:44:05;;;;;;;17.63;7.00;;;6.60;42.30;;;;;;5051673;28;20204;-50
2023/12/01 12:46:32;;;;;;;5.45;3.17;;;6.60;42.20;;;;;;5051142;28;20260;-56
2023/12/01 12:49:09;;;;;;;4.80;2.72;;;6.60;42.30;;;;;;5051473;28;20258;-51
2023/12/01 12:51:35;;;;;;;8.70;5.07;;;6.60;42.20;;;;;;5051575;28;20191;-51
2023/12/01 12:54:02;;;;;;;6.40;3.45;;;6.60;42.20;;;;;;5051496;28;20208;-56
2023/12/01 12:56:28;;;;;;;10.32;3.35;;;6.60;42.20;;;;;;5051452;28;20173;-49
2023/12/01 12:58:56;;;;;;;4.20;3.33;;;6.50;42.10;;;;;;5051513;28;21183;-58